Time;durP1;ratioP1;P1;durP2;ratioP2;P2;SDS_P1;SDS_P2;PMS_P1;PMS_P2;Temp;Humidity;BMP_temperature;BMP_pressure;BME280_temperature;BME280_humidity;BME280_pressure;Samples;Min_cycle;Max_cycle;Signal;HPM_P1;HPM_P2
2022/02/21 00:01:25;;;;;;;10.57;1.52;;;7.50;99.90;;;;;;5163373;23;20087;-74
2022/02/21 00:03:27;;;;;;;6.90;1.52;;;7.50;99.90;;;;;;5191514;22;20016;-74
2022/02/21 00:05:27;;;;;;;7.90;1.60;;;7.50;99.90;;;;;;5137696;23;20061;-74
2022/02/21 00:07:28;;;;;;;8.38;1.65;;;7.50;99.90;;;;;;5190368;22;20342;-74
2022/02/21 00:09:29;;;;;;;6.38;1.85;;;7.50;99.90;;;;;;5191144;22;20027;-74
2022/02/21 00:11:30;;;;;;;7.15;1.45;;;7.50;99.90;;;;;;5190286;22;20019;-74
2022/02/21 00:13:30;;;;;;;9.68;1.95;;;7.50;99.90;;;;;;5190535;22;20016;-74
2022/02/21 00:15:31;;;;;;;5.43;1.52;;;7.50;99.90;;;;;;5188450;22;20004;-74
2022/02/21 00:17:33;;;;;;;6.35;1.67;;;7.50;99.90;;;;;;5190082;22;20007;-74
2022/02/21 00:19:33;;;;;;;5.43;1.58;;;7.50;99.90;;;;;;5162974;23;20027;-74
2022/02/21 00:21:34;;;;;;;9.90;1.70;;;7.50;99.90;;;;;;5162836;23;20008;-74
2022/02/21 00:23:35;;;;;;;10.05;2.08;;;7.50;99.90;;;;;;5190408;22;20499;-74
2022/02/21 00:25:35;;;;;;;10.35;2.13;;;7.60;99.90;;;;;;5162108;23;20058;-74
2022/02/21 00:27:37;;;;;;;10.43;2.10;;;7.60;99.90;;;;;;5190347;22;20011;-74
2022/02/21 00:29:38;;;;;;;17.20;2.28;;;7.60;99.90;;;;;;5190741;22;20344;-74
2022/02/21 00:31:38;;;;;;;11.88;2.28;;;7.60;99.90;;;;;;5190132;22;20008;-74
2022/02/21 00:33:39;;;;;;;12.13;2.42;;;7.60;99.90;;;;;;5190586;22;20035;-74
2022/02/21 00:35:40;;;;;;;11.90;1.90;;;7.60;99.90;;;;;;5188591;22;20377;-74
2022/02/21 00:37:41;;;;;;;10.52;2.55;;;7.60;99.90;;;;;;5189666;22;20012;-74
2022/02/21 00:39:41;;;;;;;10.80;2.80;;;7.60;99.90;;;;;;5191406;22;20333;-74
2022/02/21 00:41:42;;;;;;;15.63;2.40;;;7.70;99.90;;;;;;5188165;22;20341;-74
2022/02/21 00:43:43;;;;;;;9.80;2.30;;;7.60;99.90;;;;;;5190429;22;20030;-74
2022/02/21 00:45:43;;;;;;;8.57;1.92;;;7.60;99.90;;;;;;5189606;22;20023;-74
2022/02/21 00:47:44;;;;;;;9.35;2.22;;;7.60;99.90;;;;;;5190734;22;20011;-73
2022/02/21 00:49:45;;;;;;;17.60;3.00;;;7.60;99.90;;;;;;5162883;23;20015;-74
2022/02/21 00:51:45;;;;;;;8.85;2.17;;;7.60;99.90;;;;;;5187347;22;20007;-73
2022/02/21 00:53:46;;;;;;;13.60;2.47;;;7.60;99.90;;;;;;5189711;22;20544;-74
2022/02/21 00:55:47;;;;;;;14.00;2.20;;;7.60;99.90;;;;;;5189609;22;20012;-74
2022/02/21 00:57:48;;;;;;;8.27;2.00;;;7.60;99.90;;;;;;5189825;22;20445;-74
2022/02/21 00:59:48;;;;;;;12.90;2.38;;;7.50;99.90;;;;;;5189545;22;20087;-74
2022/02/21 01:01:49;;;;;;;14.70;2.17;;;7.60;99.90;;;;;;5189140;22;20007;-74
2022/02/21 01:03:50;;;;;;;12.30;2.35;;;7.50;99.90;;;;;;5161948;23;20011;-74
2022/02/21 01:05:50;;;;;;;8.27;2.28;;;7.50;99.90;;;;;;5188864;22;20007;-74
2022/02/21 01:07:51;;;;;;;9.20;1.90;;;7.50;99.90;;;;;;5190125;22;20012;-74
2022/02/21 01:09:51;;;;;;;6.13;1.77;;;7.50;99.90;;;;;;5189656;22;20038;-74
2022/02/21 01:11:52;;;;;;;11.52;2.88;;;7.50;99.90;;;;;;5161347;23;20004;-74
2022/02/21 01:13:53;;;;;;;11.15;1.88;;;7.50;99.90;;;;;;5189528;22;20011;-74
2022/02/21 01:15:54;;;;;;;10.10;2.45;;;7.40;99.90;;;;;;5188329;22;20007;-74
2022/02/21 01:17:54;;;;;;;8.35;2.05;;;7.30;99.90;;;;;;5190312;22;20031;-73
2022/02/21 01:19:55;;;;;;;14.15;2.40;;;7.30;99.90;;;;;;5190088;22;20030;-74
2022/02/21 01:21:56;;;;;;;11.82;2.25;;;7.30;99.90;;;;;;5161352;23;20008;-74
2022/02/21 01:23:56;;;;;;;7.47;1.95;;;7.30;99.90;;;;;;5190664;22;20065;-74
2022/02/21 01:25:57;;;;;;;10.65;2.58;;;7.30;99.90;;;;;;5135786;23;20324;-74
2022/02/21 01:27:58;;;;;;;9.07;1.88;;;7.30;99.90;;;;;;5190468;22;20004;-74
2022/02/21 01:29:58;;;;;;;13.82;2.38;;;7.30;99.90;;;;;;5190031;22;20011;-74
2022/02/21 01:31:59;;;;;;;11.35;2.40;;;7.30;99.90;;;;;;5189069;22;20012;-74
2022/02/21 01:34:00;;;;;;;8.25;2.22;;;7.30;99.90;;;;;;5190538;22;20044;-74
2022/02/21 01:36:01;;;;;;;8.90;2.28;;;7.30;99.90;;;;;;5189671;22;20441;-74
2022/02/21 01:38:01;;;;;;;13.75;3.05;;;7.20;99.90;;;;;;5190650;22;20437;-74
2022/02/21 01:40:07;;;;;;;13.02;2.80;;;7.20;99.90;;;;;;5189956;22;20393;-74
2022/02/21 01:42:08;;;;;;;8.57;2.47;;;7.20;99.90;;;;;;5189214;22;20011;-74
2022/02/21 01:44:11;;;;;;;13.20;2.25;;;7.20;99.90;;;;;;5188619;22;20024;-74
2022/02/21 01:46:12;;;;;;;8.73;2.28;;;7.20;99.90;;;;;;5188287;22;20393;-74
2022/02/21 01:48:13;;;;;;;10.75;2.70;;;7.10;99.90;;;;;;5162515;23;20008;-74
2022/02/21 01:50:14;;;;;;;9.57;2.28;;;7.10;99.90;;;;;;5189107;22;20020;-74
2022/02/21 01:52:17;;;;;;;15.90;2.65;;;7.10;99.90;;;;;;5189742;22;20429;-74
2022/02/21 01:54:17;;;;;;;11.23;2.30;;;7.10;99.90;;;;;;5189822;22;20015;-74
2022/02/21 01:56:18;;;;;;;12.38;2.85;;;7.10;99.90;;;;;;5189362;22;20073;-74
2022/02/21 01:58:19;;;;;;;10.75;2.65;;;7.20;99.90;;;;;;5189238;22;20077;-74
2022/02/21 02:00:20;;;;;;;13.15;2.60;;;7.10;99.90;;;;;;5189504;22;20570;-74
2022/02/21 02:02:20;;;;;;;17.23;3.05;;;7.10;99.90;;;;;;5188694;22;20409;-73
2022/02/21 02:04:21;;;;;;;14.95;3.22;;;7.10;99.90;;;;;;5188718;22;20035;-74
2022/02/21 02:06:22;;;;;;;20.27;2.95;;;7.10;99.90;;;;;;5161013;23;20044;-73
2022/02/21 02:08:23;;;;;;;13.00;3.35;;;7.10;99.90;;;;;;5187765;22;20012;-73
2022/02/21 02:10:24;;;;;;;13.60;2.95;;;7.10;99.90;;;;;;5187645;22;20346;-73
2022/02/21 02:12:25;;;;;;;14.45;3.45;;;7.10;99.90;;;;;;5188146;22;20020;-73
2022/02/21 02:14:40;;;;;;;21.35;3.00;;;7.00;99.90;;;;;;5190345;22;20033;-74
2022/02/21 02:16:40;;;;;;;10.27;2.75;;;7.00;99.90;;;;;;5189478;22;20015;-73
2022/02/21 02:18:41;;;;;;;12.20;2.35;;;7.10;99.90;;;;;;5190620;22;20012;-73
2022/02/21 02:20:41;;;;;;;14.13;2.80;;;7.00;99.90;;;;;;5189251;22;20098;-73
2022/02/21 02:22:42;;;;;;;10.20;2.45;;;6.90;99.90;;;;;;5163442;23;20020;-73
2022/02/21 02:24:45;;;;;;;16.13;3.17;;;7.00;99.90;;;;;;5191217;22;20071;-73
2022/02/21 02:26:46;;;;;;;16.67;3.03;;;6.90;99.90;;;;;;5162783;23;20039;-73
2022/02/21 02:28:50;;;;;;;14.82;3.08;;;6.90;99.90;;;;;;5191070;22;20007;-73
2022/02/21 02:30:51;;;;;;;15.13;3.38;;;6.80;99.90;;;;;;5190449;22;20008;-73
2022/02/21 02:32:54;;;;;;;15.80;3.03;;;6.80;99.90;;;;;;5163814;23;20016;-73
2022/02/21 02:34:55;;;;;;;19.88;3.78;;;6.80;99.90;;;;;;5138377;23;20343;-73
2022/02/21 02:36:56;;;;;;;16.83;3.67;;;6.80;99.90;;;;;;5191083;22;20081;-73
2022/02/21 02:38:56;;;;;;;11.13;2.78;;;6.80;99.90;;;;;;5191364;22;20322;-73
2022/02/21 02:40:57;;;;;;;17.92;2.88;;;6.80;99.90;;;;;;5162667;23;20012;-73
2022/02/21 02:42:57;;;;;;;14.80;2.95;;;6.80;99.90;;;;;;5163365;23;20041;-73
2022/02/21 02:44:58;;;;;;;12.25;2.70;;;6.70;99.90;;;;;;5190429;22;20037;-73
2022/02/21 02:46:59;;;;;;;15.50;2.97;;;6.70;99.90;;;;;;5190508;22;20091;-73
2022/02/21 02:48:59;;;;;;;13.07;2.97;;;6.80;99.90;;;;;;5163197;23;20004;-73
2022/02/21 02:51:00;;;;;;;11.23;2.65;;;6.80;99.90;;;;;;5187876;22;20513;-73
2022/02/21 02:53:01;;;;;;;13.07;2.58;;;6.70;99.90;;;;;;5190712;22;20464;-73
2022/02/21 02:55:02;;;;;;;13.15;2.65;;;6.70;99.90;;;;;;5190864;22;20019;-73
2022/02/21 02:57:03;;;;;;;10.55;2.70;;;6.70;99.90;;;;;;5162775;23;20016;-73
2022/02/21 02:59:03;;;;;;;13.43;2.70;;;6.70;99.90;;;;;;5162946;23;20426;-73
2022/02/21 03:01:04;;;;;;;14.90;2.55;;;6.60;99.90;;;;;;5190199;22;20012;-73
2022/02/21 03:03:05;;;;;;;17.20;3.72;;;6.60;99.90;;;;;;5190337;22;20011;-73
2022/02/21 03:05:05;;;;;;;16.10;3.20;;;6.60;99.90;;;;;;5190065;22;20339;-73
2022/02/21 03:07:06;;;;;;;8.38;2.35;;;6.60;99.90;;;;;;5162900;23;20019;-73
2022/02/21 03:09:07;;;;;;;20.60;3.75;;;6.70;99.90;;;;;;5190704;22;20500;-73
2022/02/21 03:11:07;;;;;;;13.68;2.70;;;6.60;99.90;;;;;;5189933;22;20008;-73
2022/02/21 03:13:08;;;;;;;15.30;2.67;;;6.60;99.90;;;;;;5189738;22;20007;-73
2022/02/21 03:15:09;;;;;;;17.27;3.17;;;6.60;99.90;;;;;;5189695;22;20504;-73
2022/02/21 03:17:10;;;;;;;8.00;2.60;;;6.50;99.90;;;;;;5137591;23;20008;-73
2022/02/21 03:19:10;;;;;;;10.77;2.75;;;6.40;99.90;;;;;;5188706;22;20052;-73
2022/02/21 03:21:11;;;;;;;15.05;3.22;;;6.40;99.90;;;;;;5187440;22;20007;-73
2022/02/21 03:23:12;;;;;;;15.02;3.08;;;6.40;99.90;;;;;;5190162;22;20011;-73
2022/02/21 03:25:13;;;;;;;13.85;2.50;;;6.40;99.90;;;;;;5188647;22;20501;-73
2022/02/21 03:27:14;;;;;;;5.80;2.00;;;6.50;99.90;;;;;;5190270;22;20341;-73
2022/02/21 03:29:15;;;;;;;10.95;2.40;;;6.50;99.90;;;;;;5191101;22;20019;-73
2022/02/21 03:31:16;;;;;;;14.43;2.88;;;6.50;99.90;;;;;;5190064;22;20024;-73
2022/02/21 03:33:17;;;;;;;11.35;2.40;;;6.60;99.90;;;;;;5163164;23;20311;-73
2022/02/21 03:35:17;;;;;;;10.18;2.33;;;6.60;99.90;;;;;;5190120;22;20018;-73
2022/02/21 03:37:18;;;;;;;10.90;2.90;;;6.50;99.90;;;;;;5191376;22;20012;-73
2022/02/21 03:39:18;;;;;;;13.38;2.65;;;6.50;99.90;;;;;;5190626;22;20016;-73
2022/02/21 03:41:19;;;;;;;13.10;2.50;;;6.40;99.90;;;;;;5190019;22;20083;-73
2022/02/21 03:43:20;;;;;;;13.20;2.80;;;6.40;99.90;;;;;;5189978;22;20345;-73
2022/02/21 03:45:22;;;;;;;10.98;2.75;;;6.50;99.90;;;;;;5189879;22;20026;-73
2022/02/21 03:47:22;;;;;;;12.77;2.72;;;6.40;99.90;;;;;;5190492;22;20018;-73
2022/02/21 03:49:23;;;;;;;12.95;2.55;;;6.50;99.90;;;;;;5190559;22;20011;-73
2022/02/21 03:51:24;;;;;;;9.00;2.30;;;6.50;99.90;;;;;;5189557;22;20007;-73
2022/02/21 03:53:25;;;;;;;14.70;2.78;;;6.50;99.90;;;;;;5190516;22;20460;-73
2022/02/21 03:55:25;;;;;;;18.65;3.42;;;6.50;99.90;;;;;;5189069;22;20012;-73
2022/02/21 03:57:26;;;;;;;13.00;3.05;;;6.50;99.90;;;;;;5191707;22;20008;-73
2022/02/21 03:59:26;;;;;;;12.82;2.50;;;6.40;99.90;;;;;;5191514;22;20341;-73
2022/02/21 04:01:27;;;;;;;9.05;2.08;;;6.40;99.90;;;;;;5162387;23;20127;-73
2022/02/21 04:03:28;;;;;;;12.77;2.72;;;6.40;99.90;;;;;;5191553;22;20461;-73
2022/02/21 04:05:29;;;;;;;14.88;2.95;;;6.40;99.90;;;;;;5190431;22;20480;-73
2022/02/21 04:07:29;;;;;;;11.60;2.35;;;6.30;99.90;;;;;;5163843;23;20004;-73
2022/02/21 04:09:30;;;;;;;8.05;1.77;;;6.20;99.90;;;;;;5163120;23;20062;-73
2022/02/21 04:11:31;;;;;;;10.95;2.53;;;6.10;99.90;;;;;;5190737;22;20471;-73
2022/02/21 04:13:31;;;;;;;15.57;3.17;;;6.00;99.90;;;;;;5163290;23;20058;-73
2022/02/21 04:15:32;;;;;;;14.32;3.25;;;6.00;99.90;;;;;;5189757;22;20008;-73
2022/02/21 04:17:40;;;;;;;12.73;3.00;;;5.90;99.90;;;;;;5191265;22;20016;-73
2022/02/21 04:19:41;;;;;;;15.13;2.70;;;5.90;99.90;;;;;;5190289;22;20046;-73
2022/02/21 04:21:42;;;;;;;15.93;2.65;;;5.80;99.90;;;;;;5162441;23;20087;-73
2022/02/21 04:23:42;;;;;;;13.95;2.38;;;5.70;99.90;;;;;;5162630;23;20087;-73
2022/02/21 04:25:45;;;;;;;12.15;2.45;;;5.60;99.90;;;;;;5188760;22;19999;-73
2022/02/21 04:27:50;;;;;;;10.98;2.45;;;5.60;99.90;;;;;;5163371;23;20004;-73
2022/02/21 04:29:51;;;;;;;13.10;2.53;;;5.60;99.90;;;;;;5190004;22;20007;-73
2022/02/21 04:31:52;;;;;;;13.07;2.47;;;5.50;99.90;;;;;;5189619;22;20078;-73
2022/02/21 04:33:53;;;;;;;10.40;2.60;;;5.50;99.90;;;;;;5189592;22;20042;-73
2022/02/21 04:35:53;;;;;;;9.60;2.15;;;5.50;99.90;;;;;;5162067;23;20015;-73
2022/02/21 04:37:54;;;;;;;14.55;3.67;;;5.40;99.90;;;;;;5162360;23;20005;-73
2022/02/21 04:39:54;;;;;;;11.68;2.50;;;5.40;99.90;;;;;;5162842;23;20083;-73
2022/02/21 04:41:55;;;;;;;14.20;2.55;;;5.40;99.90;;;;;;5188807;22;20012;-73
2022/02/21 04:43:56;;;;;;;19.63;3.22;;;5.50;99.90;;;;;;5189089;22;20789;-73
2022/02/21 04:45:56;;;;;;;9.57;2.50;;;5.50;99.90;;;;;;5188316;22;20003;-73
2022/02/21 04:47:57;;;;;;;13.20;2.92;;;5.50;99.90;;;;;;5190848;22;20444;-73
2022/02/21 04:49:58;;;;;;;12.45;2.75;;;5.50;99.90;;;;;;5162821;23;20528;-73
2022/02/21 04:51:58;;;;;;;9.10;2.15;;;5.60;99.90;;;;;;5189409;22;20007;-73
2022/02/21 04:53:59;;;;;;;10.82;2.85;;;5.60;99.90;;;;;;5162400;23;20412;-73
2022/02/21 04:55:59;;;;;;;13.57;3.03;;;5.60;99.90;;;;;;5189861;22;20341;-73
2022/02/21 04:58:00;;;;;;;10.75;2.38;;;5.60;99.90;;;;;;5189939;22;20007;-74
2022/02/21 05:00:03;;;;;;;11.55;2.40;;;5.60;99.90;;;;;;5162275;23;20012;-73
2022/02/21 05:02:05;;;;;;;11.52;2.22;;;5.50;99.90;;;;;;5160746;23;20012;-73
2022/02/21 05:04:05;;;;;;;12.38;2.20;;;5.50;99.90;;;;;;5162194;23;20616;-73
2022/02/21 05:06:06;;;;;;;9.02;2.53;;;5.40;99.90;;;;;;5188736;22;20022;-73
2022/02/21 05:08:07;;;;;;;14.93;2.65;;;5.40;99.90;;;;;;5136975;23;20004;-74
2022/02/21 05:10:08;;;;;;;11.55;2.55;;;5.40;99.90;;;;;;5188627;22;20034;-73
2022/02/21 05:12:09;;;;;;;15.63;2.97;;;5.40;99.90;;;;;;5162128;23;20462;-73
2022/02/21 05:14:09;;;;;;;9.98;2.10;;;5.40;99.90;;;;;;5189457;22;20015;-73
2022/02/21 05:16:10;;;;;;;13.00;2.38;;;5.50;99.90;;;;;;5161540;23;20043;-74
2022/02/21 05:18:10;;;;;;;10.80;2.17;;;5.50;99.90;;;;;;5161906;23;20015;-74
2022/02/21 05:20:12;;;;;;;8.13;2.03;;;5.50;99.90;;;;;;5161559;23;20035;-74
2022/02/21 05:22:13;;;;;;;13.25;2.72;;;5.50;99.90;;;;;;5188017;22;20008;-74
2022/02/21 05:24:14;;;;;;;9.15;2.40;;;5.50;99.90;;;;;;5186908;22;20016;-74
2022/02/21 05:26:14;;;;;;;12.73;2.53;;;5.60;99.90;;;;;;5187641;22;20004;-74
2022/02/21 05:28:15;;;;;;;9.57;2.72;;;5.60;99.90;;;;;;5135133;23;20020;-74
2022/02/21 05:30:16;;;;;;;9.70;3.05;;;5.60;99.90;;;;;;5160272;23;20011;-74
2022/02/21 05:32:16;;;;;;;13.05;2.70;;;5.50;99.90;;;;;;5160646;23;20020;-74
2022/02/21 05:34:17;;;;;;;16.80;3.42;;;5.60;99.90;;;;;;5188690;22;20026;-74
2022/02/21 05:36:17;;;;;;;12.13;2.70;;;5.40;99.90;;;;;;5187480;22;20449;-74
2022/02/21 05:38:18;;;;;;;9.85;2.50;;;5.30;99.90;;;;;;5188156;22;20027;-74
2022/02/21 05:40:18;;;;;;;12.57;2.60;;;5.30;99.90;;;;;;5187696;22;20062;-74
2022/02/21 05:42:19;;;;;;;10.95;2.50;;;5.20;99.90;;;;;;5188206;22;20007;-74
2022/02/21 05:44:20;;;;;;;9.50;2.42;;;5.20;99.90;;;;;;5186786;22;20532;-74
2022/02/21 05:46:21;;;;;;;7.60;2.22;;;5.10;99.90;;;;;;5187323;22;20376;-74
2022/02/21 05:48:21;;;;;;;12.65;2.50;;;5.10;99.90;;;;;;5188021;22;20302;-74
2022/02/21 05:50:22;;;;;;;9.45;2.45;;;5.10;99.90;;;;;;5187471;22;20016;-72
2022/02/21 05:52:22;;;;;;;7.20;1.88;;;5.10;99.90;;;;;;5188036;22;20065;-73
2022/02/21 05:54:23;;;;;;;8.05;1.98;;;5.10;99.90;;;;;;5187688;22;20095;-72
2022/02/21 05:56:23;;;;;;;11.75;2.50;;;5.10;99.90;;;;;;5187354;22;20082;-72
2022/02/21 05:58:24;;;;;;;13.63;2.42;;;5.10;99.90;;;;;;5187876;22;20082;-72
2022/02/21 06:00:26;;;;;;;9.70;2.50;;;5.00;99.90;;;;;;5186924;22;20018;-72
2022/02/21 06:02:26;;;;;;;11.47;2.40;;;5.00;99.90;;;;;;5160489;23;20004;-72
2022/02/21 06:04:27;;;;;;;12.52;2.70;;;5.00;99.90;;;;;;5186865;22;20022;-72
2022/02/21 06:06:28;;;;;;;11.82;2.35;;;5.00;99.90;;;;;;5187670;22;20011;-72
2022/02/21 06:08:28;;;;;;;6.65;2.20;;;5.00;99.90;;;;;;5188486;22;20477;-72
2022/02/21 06:10:29;;;;;;;10.32;2.20;;;5.00;99.90;;;;;;5187939;22;20016;-72
2022/02/21 06:12:31;;;;;;;16.02;2.75;;;4.90;99.90;;;;;;5188116;22;20004;-72
2022/02/21 06:14:33;;;;;;;11.55;2.42;;;5.00;99.90;;;;;;5160243;23;20353;-72
2022/02/21 06:16:33;;;;;;;9.82;2.50;;;5.00;99.90;;;;;;5187931;22;20046;-72
2022/02/21 06:18:35;;;;;;;9.77;2.58;;;5.00;99.90;;;;;;5188486;22;20019;-72
2022/02/21 06:20:35;;;;;;;11.57;2.70;;;5.00;99.90;;;;;;5187698;22;20463;-72
2022/02/21 06:22:36;;;;;;;11.18;2.13;;;5.00;99.90;;;;;;5186658;22;20039;-72
2022/02/21 06:24:37;;;;;;;14.88;2.47;;;5.00;99.90;;;;;;5187564;22;20034;-72
2022/02/21 06:26:37;;;;;;;11.13;2.65;;;5.00;99.90;;;;;;5186996;22;20008;-72
2022/02/21 06:28:38;;;;;;;11.93;2.60;;;5.00;99.90;;;;;;5187658;22;20017;-72
2022/02/21 06:30:39;;;;;;;10.48;2.30;;;5.00;99.90;;;;;;5186851;22;20380;-72
2022/02/21 06:32:40;;;;;;;11.18;2.28;;;5.00;99.90;;;;;;5186939;22;20011;-72
2022/02/21 06:34:41;;;;;;;11.65;2.53;;;5.10;99.90;;;;;;5187479;22;20031;-72
2022/02/21 06:36:41;;;;;;;9.23;2.67;;;5.10;99.90;;;;;;5186564;22;20353;-72
2022/02/21 06:38:42;;;;;;;15.52;2.60;;;5.10;99.90;;;;;;5187584;22;20008;-73
2022/02/21 06:40:43;;;;;;;11.82;2.47;;;5.10;99.90;;;;;;5183326;22;20011;-73
2022/02/21 06:42:44;;;;;;;11.13;3.00;;;5.10;99.90;;;;;;5185635;22;20015;-73
2022/02/21 06:44:45;;;;;;;11.70;2.10;;;5.10;99.90;;;;;;5158780;23;20048;-73
2022/02/21 06:46:45;;;;;;;7.60;2.30;;;5.10;99.90;;;;;;5159141;23;20012;-73
2022/02/21 06:48:46;;;;;;;16.45;2.78;;;5.10;99.90;;;;;;5159307;23;20012;-73
2022/02/21 06:50:46;;;;;;;13.63;2.45;;;5.10;99.90;;;;;;5185775;22;20066;-73
2022/02/21 06:52:47;;;;;;;12.60;2.03;;;5.00;99.90;;;;;;5158984;23;20474;-73
2022/02/21 06:54:52;;;;;;;15.00;2.53;;;5.10;99.90;;;;;;5186897;22;20064;-73
2022/02/21 06:56:53;;;;;;;10.15;2.72;;;5.10;99.90;;;;;;5158869;23;20434;-73
2022/02/21 06:58:53;;;;;;;13.50;2.67;;;5.00;99.90;;;;;;5181594;22;20034;-73
2022/02/21 07:00:54;;;;;;;9.38;2.17;;;5.10;99.90;;;;;;5185842;22;20061;-73
2022/02/21 07:02:54;;;;;;;8.75;2.28;;;5.00;99.90;;;;;;5188368;22;20518;-73
2022/02/21 07:04:55;;;;;;;8.75;2.13;;;5.10;99.90;;;;;;5187784;22;20035;-73
2022/02/21 07:06:56;;;;;;;7.55;2.15;;;5.00;99.90;;;;;;5184230;22;20011;-73
2022/02/21 07:08:56;;;;;;;9.55;2.00;;;5.00;99.90;;;;;;5187579;22;20437;-73
2022/02/21 07:10:57;;;;;;;8.75;2.50;;;5.00;99.90;;;;;;5186876;22;20003;-74
2022/02/21 07:12:57;;;;;;;8.57;2.25;;;5.10;99.90;;;;;;5187901;22;20028;-73
2022/02/21 07:14:58;;;;;;;11.63;2.30;;;5.00;99.90;;;;;;5160807;23;20012;-73
2022/02/21 07:16:59;;;;;;;7.03;2.13;;;5.00;99.90;;;;;;5187367;22;20008;-73
2022/02/21 07:18:59;;;;;;;7.00;2.10;;;5.00;99.90;;;;;;5188765;22;20016;-73
2022/02/21 07:21:00;;;;;;;10.65;2.58;;;5.00;99.90;;;;;;5160078;23;20083;-73
2022/02/21 07:23:00;;;;;;;9.20;2.38;;;5.00;99.90;;;;;;5189080;22;20018;-73
2022/02/21 07:25:01;;;;;;;13.18;3.03;;;5.00;99.90;;;;;;5189120;22;20039;-73
2022/02/21 07:27:02;;;;;;;12.82;2.28;;;5.10;99.90;;;;;;5159883;23;20008;-73
2022/02/21 07:29:04;;;;;;;9.65;2.53;;;5.00;99.90;;;;;;5189000;22;20011;-73
2022/02/21 07:31:06;;;;;;;12.82;2.67;;;5.00;99.90;;;;;;5187242;22;20012;-73
2022/02/21 07:33:07;;;;;;;;;;;5.00;99.90;;;;;;5188986;22;20440;-73
2022/02/21 07:35:09;;;;;;;13.32;3.15;;;5.10;99.90;;;;;;5187146;22;20076;-73
2022/02/21 07:37:10;;;;;;;14.73;2.80;;;5.10;99.90;;;;;;5187336;22;20461;-73
2022/02/21 07:39:11;;;;;;;10.90;2.20;;;5.20;99.90;;;;;;5160572;23;20020;-73
2022/02/21 07:41:12;;;;;;;13.02;2.60;;;5.30;99.90;;;;;;5183271;22;20326;-73
2022/02/21 07:43:12;;;;;;;12.40;2.33;;;5.40;99.90;;;;;;5187833;22;20022;-73
2022/02/21 07:45:13;;;;;;;15.68;2.60;;;5.50;99.90;;;;;;5184939;22;20023;-73
2022/02/21 07:47:13;;;;;;;7.07;2.33;;;5.40;99.90;;;;;;5157569;23;20476;-73
2022/02/21 07:49:14;;;;;;;12.95;3.30;;;5.50;99.90;;;;;;5186794;22;20086;-73
2022/02/21 07:51:15;;;;;;;13.05;2.30;;;5.60;99.90;;;;;;5186836;22;20043;-73
2022/02/21 07:53:15;;;;;;;13.32;2.78;;;5.80;99.90;;;;;;5187358;22;20091;-73
2022/02/21 07:55:16;;;;;;;14.07;3.20;;;5.90;99.90;;;;;;5186947;22;20086;-73
2022/02/21 07:57:17;;;;;;;12.55;2.85;;;6.00;99.90;;;;;;5188361;22;20073;-73
2022/02/21 07:59:18;;;;;;;10.52;2.67;;;6.20;99.90;;;;;;5188059;22;20087;-73
2022/02/21 08:01:18;;;;;;;12.10;2.72;;;6.30;99.90;;;;;;5159487;23;20453;-73
2022/02/21 08:03:19;;;;;;;12.13;2.85;;;6.30;99.90;;;;;;5160139;23;20070;-73
2022/02/21 08:05:20;;;;;;;10.65;2.47;;;6.30;99.90;;;;;;5187312;22;20023;-73
2022/02/21 08:07:20;;;;;;;8.90;2.67;;;6.50;99.90;;;;;;5160525;23;20004;-73
2022/02/21 08:09:21;;;;;;;7.78;2.30;;;6.60;99.90;;;;;;5187966;22;20035;-73
2022/02/21 08:11:24;;;;;;;9.00;2.67;;;6.80;99.90;;;;;;5187205;22;20015;-73
2022/02/21 08:13:25;;;;;;;9.30;2.38;;;7.00;99.90;;;;;;5186803;22;20471;-73
2022/02/21 08:15:25;;;;;;;14.95;3.17;;;7.20;99.90;;;;;;5159831;23;20036;-73
2022/02/21 08:17:26;;;;;;;12.10;2.30;;;7.40;99.90;;;;;;5187603;22;20069;-73
2022/02/21 08:19:27;;;;;;;9.45;2.15;;;7.40;99.90;;;;;;5187571;22;20087;-73
2022/02/21 08:21:27;;;;;;;10.65;2.78;;;7.30;99.90;;;;;;5187327;22;20069;-73
2022/02/21 08:23:28;;;;;;;5.13;1.77;;;7.30;99.90;;;;;;5160212;23;20012;-73
2022/02/21 08:25:29;;;;;;;16.02;2.97;;;7.20;99.90;;;;;;5159554;23;20040;-73
2022/02/21 08:27:29;;;;;;;10.10;2.53;;;7.10;99.90;;;;;;5187549;22;20003;-73
2022/02/21 08:29:32;;;;;;;12.88;2.20;;;7.10;99.90;;;;;;5160123;23;20020;-73
2022/02/21 08:31:33;;;;;;;;;;;7.00;99.90;;;;;;5187910;22;20012;-73
2022/02/21 08:33:33;;;;;;;8.90;2.58;;;7.20;99.90;;;;;;5186898;22;20230;-73
2022/02/21 08:35:34;;;;;;;9.05;2.67;;;7.40;99.90;;;;;;5187422;22;20020;-73
2022/02/21 08:37:35;;;;;;;7.70;2.00;;;7.50;99.90;;;;;;5186400;22;20007;-73
2022/02/21 08:39:36;;;;;;;8.75;2.38;;;7.60;99.90;;;;;;5187900;22;20012;-73
2022/02/21 08:41:36;;;;;;;10.57;2.13;;;7.80;99.90;;;;;;5187215;22;20020;-73
2022/02/21 08:43:37;;;;;;;8.00;2.15;;;7.90;99.90;;;;;;5187685;22;20016;-73
2022/02/21 08:45:38;;;;;;;7.07;2.15;;;8.10;99.90;;;;;;5160325;23;20458;-73
2022/02/21 08:47:39;;;;;;;8.13;2.00;;;8.30;99.90;;;;;;5186261;22;20018;-73
2022/02/21 08:49:40;;;;;;;10.35;2.65;;;8.50;99.90;;;;;;5160095;23;20067;-73
2022/02/21 08:51:40;;;;;;;5.57;2.10;;;8.40;99.90;;;;;;5186198;22;20019;-73
2022/02/21 08:53:41;;;;;;;10.70;2.70;;;8.30;99.90;;;;;;5187154;22;20015;-73
2022/02/21 08:55:41;;;;;;;11.27;2.75;;;8.50;99.90;;;;;;5186904;22;20352;-73
2022/02/21 08:57:43;;;;;;;10.70;2.50;;;8.50;99.90;;;;;;5187752;22;20016;-73
2022/02/21 08:59:44;;;;;;;10.80;2.63;;;8.50;99.90;;;;;;5135218;23;20017;-73
2022/02/21 09:01:46;;;;;;;13.40;2.65;;;8.60;99.90;;;;;;5186425;22;20106;-73
2022/02/21 09:03:46;;;;;;;8.85;2.03;;;8.60;99.90;;;;;;5186797;22;20026;-73
2022/02/21 09:05:47;;;;;;;11.25;2.20;;;8.60;99.90;;;;;;5186910;22;20004;-73
2022/02/21 09:07:47;;;;;;;12.45;2.45;;;8.60;99.90;;;;;;5186893;22;20004;-73
2022/02/21 09:09:48;;;;;;;7.28;2.33;;;8.60;99.90;;;;;;5187381;22;20008;-73
2022/02/21 09:11:50;;;;;;;5.95;1.88;;;8.40;99.90;;;;;;5186472;22;20011;-73
2022/02/21 09:13:51;;;;;;;8.65;1.95;;;8.40;99.90;;;;;;5187850;22;20338;-73
2022/02/21 09:15:51;;;;;;;8.27;2.03;;;8.10;99.90;;;;;;5186954;22;20023;-73
2022/02/21 09:17:53;;;;;;;7.32;2.10;;;8.10;99.90;;;;;;5186973;22;20008;-73
2022/02/21 09:19:54;;;;;;;9.20;2.33;;;8.00;99.90;;;;;;5185523;22;20126;-73
2022/02/21 09:21:54;;;;;;;6.55;1.90;;;7.90;99.90;;;;;;5185032;22;20011;-73
2022/02/21 09:23:55;;;;;;;7.80;2.28;;;7.80;99.90;;;;;;5186196;22;20004;-72
2022/02/21 09:25:55;;;;;;;8.20;2.33;;;7.60;99.90;;;;;;5185721;22;20004;-73
2022/02/21 09:27:56;;;;;;;5.88;1.98;;;7.50;99.90;;;;;;5159970;23;20004;-73
2022/02/21 09:29:57;;;;;;;10.32;2.20;;;7.50;99.90;;;;;;5186641;22;20467;-73
2022/02/21 09:31:58;;;;;;;8.77;2.17;;;7.50;99.90;;;;;;5159086;23;20008;-72
2022/02/21 09:33:58;;;;;;;10.40;2.10;;;7.50;99.90;;;;;;5159034;23;20008;-72
2022/02/21 09:35:59;;;;;;;11.23;1.80;;;7.50;99.90;;;;;;5184183;22;20004;-72
2022/02/21 09:37:59;;;;;;;11.60;2.63;;;7.40;99.90;;;;;;5185870;22;19999;-72
2022/02/21 09:40:00;;;;;;;14.13;2.60;;;7.40;99.90;;;;;;5134313;23;20013;-72
2022/02/21 09:42:01;;;;;;;10.95;1.98;;;7.30;99.90;;;;;;5158029;23;20004;-72
2022/02/21 09:44:02;;;;;;;11.90;2.40;;;7.30;99.90;;;;;;5187180;22;20015;-72
2022/02/21 09:46:06;;;;;;;10.63;2.40;;;7.30;99.90;;;;;;5186725;22;20007;-73
2022/02/21 09:48:07;;;;;;;8.75;2.40;;;7.10;99.90;;;;;;5187362;22;20495;-73
2022/02/21 09:50:08;;;;;;;13.48;2.55;;;7.10;99.90;;;;;;5186785;22;20016;-72
2022/02/21 09:52:09;;;;;;;12.98;2.60;;;7.00;99.90;;;;;;5186976;22;20008;-72
2022/02/21 09:54:15;;;;;;;11.52;2.50;;;6.90;99.90;;;;;;5186971;22;20016;-72
2022/02/21 09:56:16;;;;;;;13.77;2.70;;;6.90;99.90;;;;;;5185556;22;20077;-72
2022/02/21 09:58:17;;;;;;;8.32;2.30;;;6.80;99.90;;;;;;5186669;22;20020;-72
2022/02/21 10:00:18;;;;;;;7.25;2.05;;;6.80;99.90;;;;;;5185652;22;20396;-72
2022/02/21 10:02:23;;;;;;;11.27;2.67;;;6.80;99.90;;;;;;5186437;22;20008;-72
2022/02/21 10:04:27;;;;;;;9.13;2.15;;;6.80;99.90;;;;;;5186623;22;20015;-72
2022/02/21 10:06:30;;;;;;;14.13;2.90;;;6.70;99.90;;;;;;5185937;22;20019;-72
2022/02/21 10:08:31;;;;;;;11.60;2.08;;;6.80;99.90;;;;;;5186821;22;20011;-72
2022/02/21 10:10:36;;;;;;;12.60;2.33;;;6.80;99.90;;;;;;5185284;22;20082;-72
2022/02/21 10:12:51;;;;;;;13.50;2.60;;;6.70;99.90;;;;;;5187161;22;20016;-72
2022/02/21 10:14:52;;;;;;;14.45;2.53;;;6.60;99.90;;;;;;5159127;23;20515;-72
2022/02/21 10:16:55;;;;;;;12.63;2.55;;;6.60;99.90;;;;;;5186014;22;20083;-72
2022/02/21 10:19:09;;;;;;;13.27;2.58;;;6.50;99.90;;;;;;5186730;22;20012;-72
2022/02/21 10:21:10;;;;;;;11.93;2.70;;;6.50;99.90;;;;;;5158252;23;20008;-72
2022/02/21 10:23:11;;;;;;;15.95;3.65;;;6.40;99.90;;;;;;5187135;22;20064;-72
2022/02/21 10:25:21;;;;;;;14.13;3.13;;;6.40;99.90;;;;;;5158538;23;20488;-72
2022/02/21 10:27:24;;;;;;;8.15;2.13;;;6.30;99.90;;;;;;5185561;22;20023;-72
2022/02/21 10:29:25;;;;;;;14.93;2.78;;;6.10;99.90;;;;;;5186915;22;20318;-72
2022/02/21 10:31:28;;;;;;;13.90;2.72;;;6.10;99.90;;;;;;5185574;22;20065;-72
2022/02/21 10:33:29;;;;;;;9.77;2.42;;;6.10;99.90;;;;;;5134630;23;20031;-72